createdAt,value
2019-03-20T00:00:52.157Z,98.49
2019-03-20T00:01:52.117Z,98.34
2019-03-20T00:02:52.103Z,98.55
2019-03-20T00:04:04.505Z,98.28
2019-03-20T00:04:52.084Z,98.49
2019-03-20T00:05:52.065Z,98.59
2019-03-20T00:06:52.071Z,98.34
2019-03-20T00:07:52.059Z,98.59
2019-03-20T00:08:52.044Z,98.59
2019-03-20T00:09:52.021Z,98.55
2019-03-20T00:10:52.011Z,98.23
2019-03-20T00:11:52.023Z,98.44
2019-03-20T00:12:51.990Z,98.38
2019-03-20T00:13:51.979Z,98.13
2019-03-20T00:14:51.971Z,98.44
2019-03-20T00:15:52.045Z,98.13
2019-03-20T00:16:51.966Z,98.59
2019-03-20T00:17:51.992Z,98.34
2019-03-20T00:18:51.928Z,98.34
2019-03-20T00:19:51.915Z,98.44
2019-03-20T00:20:51.912Z,98.38
2019-03-20T00:21:51.889Z,98.38
2019-03-20T00:22:51.880Z,98.13
2019-03-20T00:23:51.883Z,98.18
2019-03-20T00:24:51.863Z,98.44
2019-03-20T00:25:51.846Z,98.49
2019-03-20T00:26:51.850Z,98.38
2019-03-20T00:27:51.827Z,98.38
2019-03-20T00:28:51.836Z,98.28
2019-03-20T00:29:51.809Z,98.23
2019-03-20T00:30:52.668Z,98.28
2019-03-20T00:31:51.785Z,98.49
2019-03-20T00:32:51.768Z,98.69
2019-03-20T00:33:51.762Z,98.59
2019-03-20T00:35:05.723Z,98.55
2019-03-20T00:35:51.747Z,98.55
2019-03-20T00:36:51.738Z,98.65
2019-03-20T00:37:51.725Z,98.59
2019-03-20T00:38:51.757Z,98.55
2019-03-20T00:39:51.718Z,98.55
2019-03-20T00:40:51.748Z,98.90
2019-03-20T00:41:51.685Z,98.90
2019-03-20T00:42:51.670Z,98.65
2019-03-20T00:43:51.656Z,98.55
2019-03-20T00:44:51.644Z,98.55
2019-03-20T00:45:51.675Z,98.69
2019-03-20T00:46:51.638Z,98.38
2019-03-20T00:47:51.604Z,98.38
2019-03-20T00:48:51.596Z,98.86
2019-03-20T00:49:51.590Z,98.34
2019-03-20T00:50:51.575Z,98.34
2019-03-20T00:51:51.604Z,98.34
2019-03-20T00:52:51.573Z,98.44
2019-03-20T00:53:51.550Z,98.75
2019-03-20T00:54:51.532Z,98.55
2019-03-20T00:55:51.525Z,98.59
2019-03-20T00:56:51.514Z,98.38
2019-03-20T00:57:51.511Z,98.38
2019-03-20T00:58:51.520Z,98.38
2019-03-20T00:59:51.483Z,98.38
2019-03-20T01:00:51.463Z,98.38
2019-03-20T01:01:51.470Z,98.80
2019-03-20T01:02:51.468Z,98.59
2019-03-20T01:03:51.433Z,98.75
2019-03-20T01:04:51.453Z,98.59
2019-03-20T01:06:04.542Z,98.38
2019-03-20T01:06:51.421Z,98.59
2019-03-20T01:07:51.406Z,98.80
2019-03-20T01:08:51.433Z,98.80
2019-03-20T01:09:51.366Z,98.75
2019-03-20T01:10:51.356Z,98.90
2019-03-20T01:11:51.352Z,98.96
2019-03-20T01:12:51.351Z,98.69
2019-03-20T01:13:51.326Z,98.38
2019-03-20T01:14:51.442Z,98.38
2019-03-20T01:15:51.310Z,98.59
2019-03-20T01:16:51.287Z,98.80
2019-03-20T01:17:51.289Z,98.65
2019-03-20T01:18:51.273Z,98.75
2019-03-20T01:19:51.254Z,98.69
2019-03-20T01:20:51.297Z,98.80
2019-03-20T01:21:51.242Z,98.75
2019-03-20T01:22:51.227Z,98.86
2019-03-20T01:23:51.286Z,98.44
2019-03-20T01:24:51.219Z,98.49
2019-03-20T01:25:51.192Z,98.49
2019-03-20T01:26:51.188Z,98.34
2019-03-20T01:27:51.174Z,98.69
2019-03-20T01:28:51.159Z,98.49
2019-03-20T01:29:51.146Z,98.38
2019-03-20T01:30:51.186Z,98.69
2019-03-20T01:31:51.124Z,98.55
2019-03-20T01:32:51.117Z,98.55
2019-03-20T01:33:51.104Z,98.59
2019-03-20T01:34:51.094Z,98.55
2019-03-20T01:35:51.085Z,98.59
2019-03-20T01:37:04.859Z,98.75
2019-03-20T01:37:51.064Z,98.75
2019-03-20T01:38:51.066Z,98.44
2019-03-20T01:39:51.048Z,98.59
2019-03-20T01:40:51.050Z,98.23
2019-03-20T01:41:51.030Z,98.80
2019-03-20T01:42:51.056Z,98.65
2019-03-20T01:43:50.994Z,98.55
2019-03-20T01:44:51.009Z,98.38
2019-03-20T01:45:50.996Z,98.65
2019-03-20T01:46:50.965Z,98.90
2019-03-20T01:47:51.258Z,98.59
2019-03-20T01:48:50.967Z,98.59
2019-03-20T01:49:50.934Z,98.90
2019-03-20T01:50:50.920Z,98.59
2019-03-20T01:51:50.907Z,98.59
2019-03-20T01:52:50.895Z,98.44
2019-03-20T01:53:50.900Z,98.49
2019-03-20T01:54:50.892Z,99.32
2019-03-20T01:55:50.865Z,99.43
2019-03-20T01:56:50.851Z,99.48
2019-03-20T01:57:50.898Z,99.53
2019-03-20T01:58:50.837Z,99.22
2019-03-20T01:59:50.934Z,98.69
2019-03-20T02:00:50.821Z,99.38
2019-03-20T02:01:50.802Z,99.22
2019-03-20T02:02:50.798Z,99.11
2019-03-20T02:03:50.778Z,98.80
2019-03-20T02:04:50.770Z,98.38
2019-03-20T02:05:50.786Z,98.55
2019-03-20T02:06:50.744Z,98.75
2019-03-20T02:08:03.891Z,98.44
2019-03-20T02:08:50.803Z,98.65
2019-03-20T02:09:50.719Z,98.75
2019-03-20T02:10:50.710Z,98.49
2019-03-20T02:11:50.700Z,98.59
2019-03-20T02:12:50.684Z,98.55
2019-03-20T02:13:50.673Z,98.80
2019-03-20T02:14:50.660Z,98.44
2019-03-20T02:15:50.654Z,98.90
2019-03-20T02:16:50.657Z,98.23
2019-03-20T02:17:50.670Z,98.59
2019-03-20T02:18:50.616Z,98.55
2019-03-20T02:19:50.616Z,98.18
2019-03-20T02:20:50.590Z,98.75
2019-03-20T02:21:50.583Z,98.34
2019-03-20T02:22:50.573Z,98.65
2019-03-20T02:23:50.600Z,98.23
2019-03-20T02:24:50.564Z,98.59
2019-03-20T02:25:50.542Z,98.69
2019-03-20T02:26:51.269Z,98.86
2019-03-20T02:27:50.521Z,98.90
2019-03-20T02:28:50.510Z,98.55
2019-03-20T02:29:50.538Z,98.44
2019-03-20T02:30:50.483Z,98.55
2019-03-20T02:31:50.479Z,98.55
2019-03-20T02:32:50.481Z,98.90
2019-03-20T02:33:50.553Z,98.38
2019-03-20T02:34:50.449Z,98.69
2019-03-20T02:35:52.178Z,98.69
2019-03-20T02:36:50.423Z,98.55
2019-03-20T02:37:50.420Z,98.90
2019-03-20T02:39:03.656Z,99.32
2019-03-20T02:39:50.396Z,99.01
2019-03-20T02:40:50.426Z,99.01
2019-03-20T02:41:50.388Z,99.01
2019-03-20T02:42:50.387Z,98.96
2019-03-20T02:43:50.367Z,98.90
2019-03-20T02:44:50.360Z,99.01
2019-03-20T02:45:50.327Z,99.11
2019-03-20T02:46:50.325Z,99.32
2019-03-20T02:47:50.322Z,98.90
2019-03-20T02:48:50.316Z,99.01
2019-03-20T02:49:50.301Z,99.22
2019-03-20T02:50:50.277Z,99.01
2019-03-20T02:51:50.301Z,98.90
2019-03-20T02:52:50.363Z,99.01
2019-03-20T02:53:50.790Z,99.32
2019-03-20T02:54:50.787Z,99.11
2019-03-20T02:55:50.219Z,99.17
2019-03-20T02:56:50.211Z,98.80
2019-03-20T02:57:50.242Z,99.22
2019-03-20T02:58:50.202Z,98.65
2019-03-20T02:59:50.184Z,98.69
2019-03-20T03:00:50.168Z,98.69
2019-03-20T03:01:50.154Z,98.38
2019-03-20T03:02:50.154Z,98.38
2019-03-20T03:03:50.148Z,98.55
2019-03-20T03:04:50.123Z,98.38
2019-03-20T03:05:50.110Z,98.69
2019-03-20T03:06:50.106Z,99.22
2019-03-20T03:07:50.092Z,98.80
2019-03-20T03:08:50.101Z,98.90
2019-03-20T03:10:03.364Z,98.80
2019-03-20T03:10:50.065Z,98.65
2019-03-20T03:11:50.054Z,99.11
2019-03-20T03:12:50.043Z,98.86
2019-03-20T03:13:50.032Z,98.69
2019-03-20T03:14:50.154Z,98.90
2019-03-20T03:15:50.057Z,98.90
2019-03-20T03:16:50.816Z,98.75
2019-03-20T03:17:49.995Z,98.90
2019-03-20T03:18:49.985Z,99.48
2019-03-20T03:19:49.966Z,98.80
2019-03-20T03:20:49.974Z,98.80
2019-03-20T03:21:49.940Z,99.01
2019-03-20T03:22:49.937Z,98.80
2019-03-20T03:23:49.929Z,98.80
2019-03-20T03:24:49.909Z,98.90
2019-03-20T03:25:50.473Z,98.86
2019-03-20T03:26:49.886Z,98.75
2019-03-20T03:27:49.879Z,99.43
2019-03-20T03:28:49.874Z,98.90
2019-03-20T03:29:49.853Z,99.07
2019-03-20T03:30:49.864Z,98.90
2019-03-20T03:31:49.889Z,98.80
2019-03-20T03:32:49.833Z,98.69
2019-03-20T03:33:49.825Z,98.34
2019-03-20T03:34:49.827Z,98.55
2019-03-20T03:35:49.793Z,98.65
2019-03-20T03:36:49.789Z,98.59
2019-03-20T03:37:49.870Z,98.38
2019-03-20T03:38:49.811Z,98.65
2019-03-20T03:39:49.750Z,98.55
2019-03-20T03:41:03.618Z,98.86
2019-03-20T03:41:49.743Z,98.34
2019-03-20T03:42:49.750Z,98.55
2019-03-20T03:43:49.711Z,98.23
2019-03-20T03:44:49.706Z,98.44
2019-03-20T03:45:49.687Z,98.65
2019-03-20T03:46:49.684Z,98.75
2019-03-20T03:47:49.673Z,97.81
2019-03-20T03:48:49.692Z,97.86
2019-03-20T03:49:49.636Z,98.28
2019-03-20T03:50:49.632Z,98.34
2019-03-20T03:51:50.342Z,98.34
2019-03-20T03:52:49.610Z,98.65
2019-03-20T03:53:49.597Z,98.80
2019-03-20T03:54:49.597Z,98.55
2019-03-20T03:55:49.575Z,98.69
2019-03-20T03:56:49.561Z,98.55
2019-03-20T03:57:49.553Z,98.69
2019-03-20T03:58:49.544Z,98.59
2019-03-20T03:59:49.589Z,98.90
2019-03-20T04:00:49.561Z,98.90
2019-03-20T04:01:49.531Z,98.59
2019-03-20T04:02:49.520Z,98.90
2019-03-20T04:03:49.492Z,98.65
2019-03-20T04:04:49.525Z,98.65
2019-03-20T04:05:49.467Z,98.86
2019-03-20T04:06:49.462Z,99.01
2019-03-20T04:07:49.444Z,99.22
2019-03-20T04:08:49.436Z,99.11
2019-03-20T04:09:49.426Z,99.11
2019-03-20T04:10:49.437Z,99.07
2019-03-20T04:12:02.306Z,98.69
2019-03-20T04:12:49.417Z,99.01
2019-03-20T04:13:49.391Z,99.07
2019-03-20T04:14:49.377Z,99.07
2019-03-20T04:15:49.377Z,98.96
2019-03-20T04:16:49.356Z,98.86
2019-03-20T04:17:49.347Z,99.11
2019-03-20T04:18:49.378Z,98.86
2019-03-20T04:19:49.342Z,98.96
2019-03-20T04:20:49.332Z,99.07
2019-03-20T04:21:49.298Z,98.96
2019-03-20T04:22:49.391Z,98.90
2019-03-20T04:23:49.300Z,99.11
2019-03-20T04:24:49.267Z,99.17
2019-03-20T04:25:49.262Z,99.11
2019-03-20T04:26:49.257Z,98.86
2019-03-20T04:27:49.236Z,98.96
2019-03-20T04:28:49.223Z,98.96
2019-03-20T04:29:49.214Z,99.07
2019-03-20T04:30:49.201Z,99.27
2019-03-20T04:31:49.232Z,98.86
2019-03-20T04:32:49.180Z,99.07
2019-03-20T04:33:49.170Z,98.86
2019-03-20T04:34:49.166Z,98.75
2019-03-20T04:35:49.152Z,98.86
2019-03-20T04:36:49.141Z,98.86
2019-03-20T04:37:49.153Z,98.55
2019-03-20T04:38:49.122Z,98.65
2019-03-20T04:39:49.125Z,98.55
2019-03-20T04:40:49.113Z,98.55
2019-03-20T04:41:49.138Z,98.34
2019-03-20T04:43:00.951Z,98.65
2019-03-20T04:43:49.080Z,98.23
2019-03-20T04:44:49.175Z,98.13
2019-03-20T04:45:49.899Z,98.34
2019-03-20T04:46:49.047Z,98.02
2019-03-20T04:47:49.026Z,98.34
2019-03-20T04:48:49.062Z,97.92
2019-03-20T04:49:49.020Z,98.13
2019-03-20T04:50:48.990Z,98.02
2019-03-20T04:51:48.993Z,97.81
2019-03-20T04:52:48.969Z,98.34
2019-03-20T04:53:48.961Z,98.13
2019-03-20T04:54:48.953Z,98.13
2019-03-20T04:55:48.939Z,98.02
2019-03-20T04:56:48.957Z,98.34
2019-03-20T04:57:48.926Z,98.55
2019-03-20T04:58:48.907Z,98.55
2019-03-20T04:59:48.942Z,98.23
2019-03-20T05:00:48.883Z,98.23
2019-03-20T05:01:48.876Z,98.02
2019-03-20T05:02:48.871Z,98.13
2019-03-20T05:03:48.852Z,98.23
2019-03-20T05:04:48.840Z,98.13
2019-03-20T05:05:48.851Z,98.44
2019-03-20T05:06:58.268Z,97.81
2019-03-20T05:07:49.813Z,98.23
2019-03-20T05:08:49.389Z,97.71
2019-03-20T05:09:48.789Z,97.40
2019-03-20T05:10:48.791Z,97.40
2019-03-20T05:11:48.782Z,97.92
2019-03-20T05:12:48.766Z,98.02
2019-03-20T05:14:01.860Z,97.30
2019-03-20T05:14:48.738Z,97.50
2019-03-20T05:15:48.739Z,97.19
2019-03-20T05:16:48.766Z,97.30
2019-03-20T05:17:48.710Z,97.81
2019-03-20T05:18:48.717Z,97.30
2019-03-20T05:19:48.680Z,97.30
2019-03-20T05:20:49.422Z,97.25
2019-03-20T05:21:48.668Z,97.92
2019-03-20T05:22:48.669Z,97.98
2019-03-20T05:23:48.670Z,97.25
2019-03-20T05:24:48.666Z,97.46
2019-03-20T05:25:48.627Z,97.35
2019-03-20T05:26:48.608Z,97.56
2019-03-20T05:27:48.607Z,96.94
2019-03-20T05:28:48.588Z,96.83
2019-03-20T05:29:48.698Z,96.31
2019-03-20T05:30:49.423Z,96.42
2019-03-20T05:31:48.561Z,96.52
2019-03-20T05:32:48.589Z,96.83
2019-03-20T05:33:48.542Z,96.52
2019-03-20T05:34:48.564Z,96.31
2019-03-20T05:35:48.514Z,96.21
2019-03-20T05:36:48.513Z,95.89
2019-03-20T05:37:48.507Z,95.79
2019-03-20T05:38:48.528Z,95.58
2019-03-20T05:39:48.474Z,95.12
2019-03-20T05:40:48.544Z,95.17
2019-03-20T05:41:48.454Z,95.58
2019-03-20T05:42:48.447Z,95.27
2019-03-20T05:43:48.431Z,95.37
2019-03-20T05:45:01.181Z,95.31
2019-03-20T05:45:48.422Z,95.48
2019-03-20T05:46:48.425Z,95.37
2019-03-20T05:47:48.409Z,95.42
2019-03-20T05:48:48.377Z,95.17
2019-03-20T05:49:48.391Z,95.37
2019-03-20T05:50:48.642Z,95.89
2019-03-20T05:51:48.353Z,95.42
2019-03-20T05:52:48.386Z,95.17
2019-03-20T05:53:48.522Z,95.42
2019-03-20T05:54:48.319Z,95.73
2019-03-20T05:55:48.307Z,95.73
2019-03-20T05:56:48.324Z,96.00
2019-03-20T05:57:48.294Z,95.94
2019-03-20T05:58:48.270Z,95.79
2019-03-20T05:59:48.264Z,95.79
2019-03-20T06:00:48.250Z,95.79
2019-03-20T06:01:48.239Z,95.79
2019-03-20T06:02:48.238Z,95.06
2019-03-20T06:03:48.222Z,95.06
2019-03-20T06:04:48.206Z,95.48
2019-03-20T06:05:48.194Z,95.48
2019-03-20T06:06:48.190Z,95.48
2019-03-20T06:07:48.199Z,95.48
2019-03-20T06:08:48.171Z,95.48
2019-03-20T06:09:48.153Z,95.48
2019-03-20T06:10:48.161Z,95.06
2019-03-20T06:11:48.144Z,94.85
2019-03-20T06:12:48.132Z,95.17
2019-03-20T06:13:48.145Z,95.17
2019-03-20T06:14:48.101Z,95.48
2019-03-20T06:16:00.306Z,95.68
2019-03-20T06:16:48.078Z,95.06
2019-03-20T06:17:48.088Z,95.79
2019-03-20T06:18:48.136Z,95.79
2019-03-20T06:19:48.060Z,95.85
2019-03-20T06:20:48.043Z,95.64
2019-03-20T06:21:48.031Z,95.27
2019-03-20T06:22:48.020Z,96.00
2019-03-20T06:23:48.007Z,95.37
2019-03-20T06:24:48.028Z,95.17
2019-03-20T06:25:47.983Z,95.27
2019-03-20T06:26:47.985Z,95.17
2019-03-20T06:27:47.977Z,95.21
2019-03-20T06:28:47.948Z,95.27
2019-03-20T06:29:47.938Z,95.62
2019-03-20T06:30:47.953Z,95.27
2019-03-20T06:31:47.922Z,95.21
2019-03-20T06:32:47.925Z,95.48
2019-03-20T06:33:47.896Z,95.17
2019-03-20T06:34:48.988Z,95.06
2019-03-20T06:35:47.874Z,95.27
2019-03-20T06:36:47.905Z,95.27
2019-03-20T06:37:47.857Z,95.17
2019-03-20T06:38:47.863Z,95.37
2019-03-20T06:39:47.902Z,95.48
2019-03-20T06:40:47.822Z,95.68
2019-03-20T06:41:47.818Z,95.94
2019-03-20T06:42:47.928Z,96.15
2019-03-20T06:43:48.456Z,96.21
2019-03-20T06:44:47.785Z,95.79
2019-03-20T06:45:47.971Z,95.17
2019-03-20T06:48:01.114Z,95.12
2019-03-20T06:49:01.051Z,95.37
2019-03-20T06:50:01.261Z,95.33
2019-03-20T06:51:00.992Z,95.17
2019-03-20T06:52:00.985Z,95.06
2019-03-20T06:53:00.962Z,94.96
2019-03-20T06:54:01.027Z,95.06
2019-03-20T06:55:01.415Z,95.37
2019-03-20T06:56:00.981Z,95.06
2019-03-20T06:57:00.933Z,95.02
2019-03-20T06:58:00.924Z,94.39
2019-03-20T06:59:00.907Z,94.33
2019-03-20T07:00:00.904Z,94.23
2019-03-20T07:01:00.880Z,94.12
2019-03-20T07:02:00.871Z,94.12
2019-03-20T07:03:00.878Z,94.64
2019-03-20T07:04:02.282Z,94.90
2019-03-20T07:05:00.836Z,94.90
2019-03-20T07:06:00.959Z,94.58
2019-03-20T07:07:01.711Z,94.90
2019-03-20T07:08:01.706Z,95.21
2019-03-20T07:09:00.882Z,94.85
2019-03-20T07:10:00.781Z,94.23
2019-03-20T07:11:00.778Z,94.37
2019-03-20T07:12:00.782Z,94.23
2019-03-20T07:13:00.756Z,94.48
2019-03-20T07:14:00.738Z,95.10
2019-03-20T07:15:00.742Z,94.79
2019-03-20T07:16:00.760Z,94.06
2019-03-20T07:17:00.711Z,94.90
2019-03-20T07:18:07.749Z,94.48
2019-03-20T07:19:00.698Z,95.10
2019-03-20T07:20:00.695Z,94.43
2019-03-20T07:21:00.689Z,94.90
2019-03-20T07:22:00.667Z,95.06
2019-03-20T07:23:00.651Z,94.54
2019-03-20T07:24:00.643Z,94.33
2019-03-20T07:25:00.627Z,94.23
2019-03-20T07:26:00.615Z,94.12
2019-03-20T07:27:00.644Z,94.23
2019-03-20T07:28:00.614Z,94.02
2019-03-20T07:29:00.583Z,94.23
2019-03-20T07:30:00.575Z,94.33
2019-03-20T07:31:00.568Z,93.60
2019-03-20T07:32:00.546Z,93.91
2019-03-20T07:33:00.575Z,94.02
2019-03-20T07:34:01.231Z,94.23
2019-03-20T07:35:00.528Z,94.27
2019-03-20T07:36:00.504Z,95.10
2019-03-20T07:37:00.491Z,94.37
2019-03-20T07:38:00.523Z,95.10
2019-03-20T07:39:00.477Z,94.48
2019-03-20T07:40:00.487Z,94.27
2019-03-20T07:41:00.455Z,94.06
2019-03-20T07:42:00.513Z,94.17
2019-03-20T07:43:08.811Z,93.60
2019-03-20T07:44:01.464Z,93.96
2019-03-20T07:45:00.415Z,93.12
2019-03-20T07:46:00.487Z,93.18
2019-03-20T07:47:00.393Z,93.60
2019-03-20T07:48:00.413Z,92.87
2019-03-20T07:49:13.443Z,93.18
2019-03-20T07:50:00.384Z,92.87
2019-03-20T07:51:00.395Z,93.08
2019-03-20T07:52:03.124Z,92.66
2019-03-20T07:53:03.746Z,92.77
2019-03-20T07:54:00.657Z,93.08
2019-03-20T07:55:00.454Z,92.77
2019-03-20T07:56:00.489Z,92.41
2019-03-20T07:57:00.287Z,92.56
2019-03-20T07:58:00.295Z,92.41
2019-03-20T07:59:00.268Z,90.95
2019-03-20T08:00:00.362Z,91.20
2019-03-20T08:01:00.507Z,91.31
2019-03-20T08:02:00.313Z,91.25
2019-03-20T08:03:00.244Z,91.56
2019-03-20T08:04:00.272Z,91.46
2019-03-20T08:05:00.406Z,91.25
2019-03-20T08:06:00.243Z,91.56
2019-03-20T08:07:00.219Z,91.14
2019-03-20T08:08:07.198Z,91.56
2019-03-20T08:09:01.175Z,91.87
2019-03-20T08:10:00.408Z,91.29
2019-03-20T08:11:00.151Z,91.87
2019-03-20T08:12:00.178Z,92.18
2019-03-20T08:13:00.167Z,91.71
2019-03-20T08:14:00.102Z,92.40
2019-03-20T08:15:00.184Z,91.56
2019-03-20T08:16:00.100Z,91.25
2019-03-20T08:17:00.100Z,91.20
2019-03-20T08:18:00.148Z,90.89
2019-03-20T08:19:00.785Z,90.26
2019-03-20T08:21:15.103Z,90.58
2019-03-20T08:22:15.047Z,90.22
2019-03-20T08:23:15.141Z,90.54
2019-03-20T08:24:16.059Z,90.54
2019-03-20T08:25:16.019Z,89.35
2019-03-20T08:26:14.992Z,89.45
2019-03-20T08:27:15.031Z,89.66
2019-03-20T08:28:14.976Z,89.25
2019-03-20T08:29:14.960Z,87.89
2019-03-20T08:30:14.949Z,88.93
2019-03-20T08:31:14.947Z,88.68
2019-03-20T08:32:14.925Z,87.96
2019-03-20T08:33:15.036Z,88.06
2019-03-20T08:34:14.907Z,87.23
2019-03-20T08:35:14.893Z,86.81
2019-03-20T08:36:14.887Z,86.71
2019-03-20T08:37:14.875Z,85.88
2019-03-20T08:38:18.541Z,85.11
2019-03-20T08:39:14.886Z,84.59
2019-03-20T08:40:14.844Z,82.92
2019-03-20T08:41:14.830Z,84.73
2019-03-20T08:42:14.820Z,84.00
2019-03-20T08:43:14.807Z,84.94
2019-03-20T08:44:14.798Z,85.46
2019-03-20T08:45:14.791Z,84.83
2019-03-20T08:46:14.866Z,83.17
2019-03-20T08:47:15.506Z,84.00
2019-03-20T08:48:15.535Z,83.86
2019-03-20T08:49:14.773Z,84.17
2019-03-20T08:50:16.406Z,83.86
2019-03-20T08:51:26.453Z,82.99
2019-03-20T08:52:14.764Z,82.05
2019-03-20T08:53:14.783Z,82.57
2019-03-20T08:54:14.719Z,82.78
2019-03-20T08:55:14.726Z,82.68
2019-03-20T08:56:14.670Z,82.36
2019-03-20T08:57:14.660Z,82.36
2019-03-20T08:58:15.007Z,82.78
2019-03-20T08:59:14.736Z,83.58
2019-03-20T09:00:14.645Z,83.43
2019-03-20T09:01:14.643Z,83.84
2019-03-20T09:02:14.600Z,84.47
2019-03-20T09:03:14.609Z,82.81
2019-03-20T09:04:14.575Z,82.95
2019-03-20T09:05:14.587Z,82.84
2019-03-20T09:06:14.785Z,82.81
2019-03-20T09:07:14.789Z,81.94
2019-03-20T09:08:14.718Z,80.66
2019-03-20T09:09:14.701Z,80.38
2019-03-20T09:10:15.922Z,79.48
2019-03-20T09:11:15.075Z,80.73
2019-03-20T09:12:14.587Z,80.56
2019-03-20T09:13:14.486Z,80.94
2019-03-20T09:14:14.586Z,81.70
2019-03-20T09:15:34.316Z,81.74
2019-03-20T09:16:14.449Z,81.92
2019-03-20T09:17:14.485Z,83.94
2019-03-20T09:18:14.451Z,85.22
2019-03-20T09:19:14.441Z,84.70
2019-03-20T09:20:14.446Z,85.74
2019-03-20T09:21:14.413Z,86.89
2019-03-20T09:22:27.258Z,86.99
2019-03-20T09:23:14.382Z,86.43
2019-03-20T09:24:14.432Z,85.91
2019-03-20T09:25:14.353Z,85.08
2019-03-20T09:26:14.337Z,84.94
2019-03-20T09:27:14.376Z,84.42
2019-03-20T09:28:14.386Z,84.06
2019-03-20T09:29:18.528Z,83.13
2019-03-20T09:30:14.327Z,82.78
2019-03-20T09:31:14.348Z,82.57
2019-03-20T09:32:14.290Z,82.26
2019-03-20T09:33:14.270Z,81.84
2019-03-20T09:34:14.357Z,79.97
2019-03-20T09:35:14.246Z,81.32
2019-03-20T09:36:14.427Z,81.63
2019-03-20T09:37:14.230Z,81.84
2019-03-20T09:38:14.243Z,81.63
2019-03-20T09:39:14.201Z,81.12
2019-03-20T09:40:14.219Z,80.70
2019-03-20T09:41:14.187Z,81.36
2019-03-20T09:42:14.197Z,82.20
2019-03-20T09:43:14.156Z,80.63
2019-03-20T09:44:14.145Z,80.05
2019-03-20T09:45:14.315Z,80.05
2019-03-20T09:46:14.190Z,80.46
2019-03-20T09:47:14.125Z,81.09
2019-03-20T09:48:14.105Z,82.34
2019-03-20T09:49:14.089Z,80.57
2019-03-20T09:50:14.084Z,80.36
2019-03-20T09:51:14.155Z,81.09
2019-03-20T09:52:14.576Z,81.96
2019-03-20T09:53:26.517Z,81.92
2019-03-20T09:54:14.099Z,81.92
2019-03-20T09:55:14.026Z,80.67
2019-03-20T09:56:14.016Z,80.53
2019-03-20T09:57:14.073Z,80.29
2019-03-20T09:58:13.996Z,79.66
2019-03-20T09:59:13.987Z,79.62
2019-03-20T10:00:14.009Z,78.48
2019-03-20T10:01:14.049Z,78.69
2019-03-20T10:02:23.722Z,78.27
2019-03-20T10:03:13.940Z,78.38
2019-03-20T10:04:13.935Z,77.16
2019-03-20T10:05:13.938Z,77.61
2019-03-20T10:06:13.914Z,77.13
2019-03-20T10:07:13.899Z,79.52
2019-03-20T10:08:13.946Z,80.46
2019-03-20T10:09:13.890Z,80.88
2019-03-20T10:10:13.870Z,80.67
2019-03-20T10:11:13.853Z,81.19
2019-03-20T10:12:13.848Z,82.54
2019-03-20T10:13:13.870Z,83.58
2019-03-20T10:14:13.887Z,84.25
2019-03-20T10:15:13.833Z,83.80
2019-03-20T10:16:13.800Z,83.54
2019-03-20T10:17:13.808Z,83.03
2019-03-20T10:18:13.784Z,83.13
2019-03-20T10:19:13.807Z,83.03
2019-03-20T10:20:13.781Z,82.05
2019-03-20T10:21:13.747Z,81.63
2019-03-20T10:22:13.732Z,82.36
2019-03-20T10:23:13.727Z,81.60
2019-03-20T10:24:13.716Z,79.48
2019-03-20T10:25:13.730Z,79.48
2019-03-20T10:26:14.666Z,79.48
2019-03-20T10:27:13.697Z,79.06
2019-03-20T10:28:13.692Z,79.38
2019-03-20T10:29:13.660Z,79.31
2019-03-20T10:30:13.649Z,78.89
2019-03-20T10:31:13.657Z,79.14
2019-03-20T10:32:13.642Z,78.31
2019-03-20T10:33:26.712Z,79.07
2019-03-20T10:34:13.645Z,79.66
2019-03-20T10:35:13.623Z,79.17
2019-03-20T10:36:13.817Z,79.14
2019-03-20T10:37:13.673Z,79.52
2019-03-20T10:38:13.562Z,78.72
2019-03-20T10:39:13.709Z,78.31
2019-03-20T10:40:13.908Z,78.20
2019-03-20T10:41:14.797Z,77.79
2019-03-20T10:42:13.711Z,76.64
2019-03-20T10:43:13.517Z,76.43
2019-03-20T10:44:13.883Z,75.71
2019-03-20T10:45:13.642Z,75.60
2019-03-20T10:46:13.610Z,76.43
2019-03-20T10:47:13.607Z,76.40
2019-03-20T10:48:14.698Z,76.19
2019-03-20T10:49:13.737Z,76.29
2019-03-20T10:50:13.765Z,76.40
2019-03-20T10:51:13.761Z,76.47
2019-03-20T10:52:13.818Z,74.80
2019-03-20T10:53:13.473Z,75.92
2019-03-20T10:54:13.691Z,74.91
2019-03-20T10:55:13.415Z,76.16
2019-03-20T10:56:13.369Z,76.19
2019-03-20T10:57:13.390Z,75.64
2019-03-20T10:58:13.475Z,75.33
2019-03-20T10:59:13.354Z,74.53
2019-03-20T11:00:13.380Z,75.74
2019-03-20T11:01:13.378Z,75.19
2019-03-20T11:02:13.328Z,74.77
2019-03-20T11:03:14.062Z,74.50
2019-03-20T11:04:26.511Z,74.63
2019-03-20T11:05:13.392Z,74.95
2019-03-20T11:06:13.769Z,74.95
2019-03-20T11:07:13.279Z,74.53
2019-03-20T11:08:13.285Z,75.26
2019-03-20T11:09:18.091Z,74.95
2019-03-20T11:10:14.213Z,73.80
2019-03-20T11:11:13.233Z,74.57
2019-03-20T11:12:13.216Z,73.46
2019-03-20T11:13:13.193Z,74.26
2019-03-20T11:14:14.150Z,73.53
2019-03-20T11:15:13.159Z,73.11
2019-03-20T11:16:14.146Z,73.18
2019-03-20T11:17:13.222Z,74.11
2019-03-20T11:18:13.117Z,73.84
2019-03-20T11:19:13.113Z,74.53
2019-03-20T11:20:13.096Z,74.05
2019-03-20T11:21:13.083Z,74.98
2019-03-20T11:22:18.683Z,75.19
2019-03-20T11:23:14.595Z,74.74
2019-03-20T11:24:15.242Z,74.80
2019-03-20T11:25:14.075Z,75.64
2019-03-20T11:26:13.049Z,74.91
2019-03-20T11:27:13.129Z,74.60
2019-03-20T11:28:13.837Z,75.01
2019-03-20T11:29:13.645Z,74.08
2019-03-20T11:30:13.006Z,73.32
2019-03-20T11:31:13.087Z,72.87
2019-03-20T11:32:14.370Z,70.69
2019-03-20T11:33:12.980Z,70.79
2019-03-20T11:34:13.077Z,70.93
2019-03-20T11:35:26.799Z,69.37
2019-03-20T11:36:12.954Z,68.65
2019-03-20T11:37:12.939Z,68.96
2019-03-20T11:38:12.931Z,70.79
2019-03-20T11:39:12.913Z,71.00
2019-03-20T11:40:12.874Z,69.76
2019-03-20T11:41:12.871Z,69.62
2019-03-20T11:42:12.861Z,69.00
2019-03-20T11:43:12.846Z,70.79
2019-03-20T11:44:12.837Z,70.69
2019-03-20T11:45:12.829Z,69.55
2019-03-20T11:46:12.819Z,70.28
2019-03-20T11:47:12.807Z,70.59
2019-03-20T11:48:12.794Z,70.28
2019-03-20T11:49:12.782Z,71.00
2019-03-20T11:50:12.875Z,71.52
2019-03-20T11:51:12.813Z,69.96
2019-03-20T11:52:12.766Z,70.90
2019-03-20T11:53:12.734Z,70.62
2019-03-20T11:54:12.723Z,71.45
2019-03-20T11:55:12.713Z,70.83
2019-03-20T11:56:12.719Z,70.72
2019-03-20T11:57:12.706Z,71.48
2019-03-20T11:58:12.705Z,71.48
2019-03-20T11:59:12.667Z,72.59
2019-03-20T12:00:12.655Z,72.63
2019-03-20T12:01:12.652Z,72.52
2019-03-20T12:02:12.649Z,73.35
2019-03-20T12:03:12.661Z,71.90
2019-03-20T12:04:12.610Z,72.63
2019-03-20T12:05:12.600Z,72.83
2019-03-20T12:06:25.480Z,73.04
2019-03-20T12:07:12.626Z,73.56
2019-03-20T12:08:12.571Z,73.22
2019-03-20T12:09:12.610Z,73.18
2019-03-20T12:10:12.549Z,72.56
2019-03-20T12:11:12.539Z,72.56
2019-03-20T12:12:12.535Z,72.97
2019-03-20T12:13:12.588Z,72.35
2019-03-20T12:14:12.565Z,72.59
2019-03-20T12:15:12.729Z,72.25
2019-03-20T12:16:12.486Z,71.21
2019-03-20T12:17:12.474Z,70.90
2019-03-20T12:18:12.461Z,71.42
2019-03-20T12:19:12.446Z,71.52
2019-03-20T12:20:12.441Z,72.59
2019-03-20T12:21:12.442Z,72.69
2019-03-20T12:22:12.421Z,72.56
2019-03-20T12:23:12.410Z,72.59
2019-03-20T12:24:12.402Z,72.31
2019-03-20T12:25:12.403Z,72.49
2019-03-20T12:26:13.746Z,72.59
2019-03-20T12:27:15.267Z,73.25
2019-03-20T12:28:12.356Z,72.69
2019-03-20T12:29:12.342Z,73.00
2019-03-20T12:30:12.358Z,73.32
2019-03-20T12:31:12.318Z,73.22
2019-03-20T12:32:12.358Z,72.90
2019-03-20T12:33:12.296Z,72.38
2019-03-20T12:34:12.284Z,72.73
2019-03-20T12:35:12.271Z,73.04
2019-03-20T12:36:12.317Z,73.11
2019-03-20T12:37:25.311Z,73.53
2019-03-20T12:38:14.817Z,72.69
2019-03-20T12:39:12.244Z,72.63
2019-03-20T12:40:12.239Z,73.25
2019-03-20T12:41:12.292Z,72.94
2019-03-20T12:42:12.208Z,73.25
2019-03-20T12:43:12.323Z,73.35
2019-03-20T12:44:12.190Z,73.46
2019-03-20T12:45:12.166Z,72.76
2019-03-20T12:46:12.163Z,73.25
2019-03-20T12:47:12.189Z,72.73
2019-03-20T12:48:12.173Z,73.04
2019-03-20T12:49:12.121Z,72.11
2019-03-20T12:50:12.123Z,72.55
2019-03-20T12:51:12.103Z,72.97
2019-03-20T12:52:12.087Z,73.28
2019-03-20T12:53:12.085Z,74.04
2019-03-20T12:54:12.110Z,74.15
2019-03-20T12:55:12.059Z,75.15